sensor_id;sensor_type;location;lat;lon;timestamp;temperature;humidity
52125;DHT22;38119;52.710;6.398;2023-02-26T00:01:14;1.30;99.90
52125;DHT22;38119;52.710;6.398;2023-02-26T00:03:40;1.30;99.90
52125;DHT22;38119;52.710;6.398;2023-02-26T00:06:06;1.30;99.90
52125;DHT22;38119;52.710;6.398;2023-02-26T00:08:31;1.30;99.90
52125;DHT22;38119;52.710;6.398;2023-02-26T00:10:58;1.30;99.90
52125;DHT22;38119;52.710;6.398;2023-02-26T00:13:26;1.30;99.90
52125;DHT22;38119;52.710;6.398;2023-02-26T00:15:57;1.40;99.90
52125;DHT22;38119;52.710;6.398;2023-02-26T00:18:23;1.40;99.90
52125;DHT22;38119;52.710;6.398;2023-02-26T00:20:49;1.40;99.90
52125;DHT22;38119;52.710;6.398;2023-02-26T00:23:15;1.40;99.90
52125;DHT22;38119;52.710;6.398;2023-02-26T00:25:43;1.40;99.90
52125;DHT22;38119;52.710;6.398;2023-02-26T00:28:09;1.40;99.90
52125;DHT22;38119;52.710;6.398;2023-02-26T00:30:35;1.40;99.90
52125;DHT22;38119;52.710;6.398;2023-02-26T00:33:01;1.40;99.90
52125;DHT22;38119;52.710;6.398;2023-02-26T00:35:27;1.40;99.90
52125;DHT22;38119;52.710;6.398;2023-02-26T00:38:10;1.30;99.90
52125;DHT22;38119;52.710;6.398;2023-02-26T00:43:22;1.30;99.90
52125;DHT22;38119;52.710;6.398;2023-02-26T00:48:33;1.30;99.90
52125;DHT22;38119;52.710;6.398;2023-02-26T00:51:38;1.30;99.90
52125;DHT22;38119;52.710;6.398;2023-02-26T00:54:19;1.30;99.90
52125;DHT22;38119;52.710;6.398;2023-02-26T00:56:47;1.20;99.90
52125;DHT22;38119;52.710;6.398;2023-02-26T00:59:14;1.20;99.90
52125;DHT22;38119;52.710;6.398;2023-02-26T01:01:43;1.20;99.90
52125;DHT22;38119;52.710;6.398;2023-02-26T01:04:11;1.10;99.90
52125;DHT22;38119;52.710;6.398;2023-02-26T01:06:57;1.10;99.90
52125;DHT22;38119;52.710;6.398;2023-02-26T01:11:54;1.00;99.90
52125;DHT22;38119;52.710;6.398;2023-02-26T01:14:21;0.90;99.90
52125;DHT22;38119;52.710;6.398;2023-02-26T01:22:12;0.90;99.90
52125;DHT22;38119;52.710;6.398;2023-02-26T01:24:40;0.80;99.90
52125;DHT22;38119;52.710;6.398;2023-02-26T01:27:06;0.80;99.90
52125;DHT22;38119;52.710;6.398;2023-02-26T01:29:32;0.80;99.90
52125;DHT22;38119;52.710;6.398;2023-02-26T01:32:07;0.70;99.90
52125;DHT22;38119;52.710;6.398;2023-02-26T01:37:33;0.70;99.90
52125;DHT22;38119;52.710;6.398;2023-02-26T01:42:35;0.70;99.90
52125;DHT22;38119;52.710;6.398;2023-02-26T01:45:14;0.70;99.90
52125;DHT22;38119;52.710;6.398;2023-02-26T01:47:58;0.60;99.90
52125;DHT22;38119;52.710;6.398;2023-02-26T01:50:26;0.60;99.90
52125;DHT22;38119;52.710;6.398;2023-02-26T01:53:20;0.70;99.90
52125;DHT22;38119;52.710;6.398;2023-02-26T01:56:12;0.70;99.90
52125;DHT22;38119;52.710;6.398;2023-02-26T01:58:36;0.60;99.90
52125;DHT22;38119;52.710;6.398;2023-02-26T02:01:02;0.60;99.90
52125;DHT22;38119;52.710;6.398;2023-02-26T02:03:31;0.60;99.90
52125;DHT22;38119;52.710;6.398;2023-02-26T02:06:08;0.60;99.90
52125;DHT22;38119;52.710;6.398;2023-02-26T02:08:35;0.70;99.90
52125;DHT22;38119;52.710;6.398;2023-02-26T02:11:02;0.70;99.90
52125;DHT22;38119;52.710;6.398;2023-02-26T02:22:22;0.70;99.90
52125;DHT22;38119;52.710;6.398;2023-02-26T02:31:07;0.70;99.90
52125;DHT22;38119;52.710;6.398;2023-02-26T02:34:00;0.60;99.90
52125;DHT22;38119;52.710;6.398;2023-02-26T02:36:42;0.70;99.90
52125;DHT22;38119;52.710;6.398;2023-02-26T02:39:22;0.60;99.90
52125;DHT22;38119;52.710;6.398;2023-02-26T02:41:53;0.60;99.90
52125;DHT22;38119;52.710;6.398;2023-02-26T02:44:22;0.60;99.90
52125;DHT22;38119;52.710;6.398;2023-02-26T02:46:52;0.60;99.90
52125;DHT22;38119;52.710;6.398;2023-02-26T02:49:33;0.60;99.90
52125;DHT22;38119;52.710;6.398;2023-02-26T02:52:25;0.50;99.90
52125;DHT22;38119;52.710;6.398;2023-02-26T02:57:36;0.50;99.90
52125;DHT22;38119;52.710;6.398;2023-02-26T03:00:07;0.50;99.90
52125;DHT22;38119;52.710;6.398;2023-02-26T03:05:15;0.50;99.90
52125;DHT22;38119;52.710;6.398;2023-02-26T03:08:04;0.50;99.90
52125;DHT22;38119;52.710;6.398;2023-02-26T03:10:31;0.50;99.90
52125;DHT22;38119;52.710;6.398;2023-02-26T03:12:57;0.50;99.90
52125;DHT22;38119;52.710;6.398;2023-02-26T03:15:40;0.50;99.90
52125;DHT22;38119;52.710;6.398;2023-02-26T03:18:25;0.50;99.90
52125;DHT22;38119;52.710;6.398;2023-02-26T03:21:14;0.50;99.90
52125;DHT22;38119;52.710;6.398;2023-02-26T03:23:48;0.50;99.90
52125;DHT22;38119;52.710;6.398;2023-02-26T03:26:29;0.50;99.90
52125;DHT22;38119;52.710;6.398;2023-02-26T03:29:02;0.50;99.90
52125;DHT22;38119;52.710;6.398;2023-02-26T03:31:45;0.40;99.90
52125;DHT22;38119;52.710;6.398;2023-02-26T03:34:29;0.40;99.90
52125;DHT22;38119;52.710;6.398;2023-02-26T03:37:06;1.30;99.90
52125;DHT22;38119;52.710;6.398;2023-02-26T03:39:37;0.30;99.90
52125;DHT22;38119;52.710;6.398;2023-02-26T03:42:13;0.30;99.90
52125;DHT22;38119;52.710;6.398;2023-02-26T03:45:06;0.30;99.90
52125;DHT22;38119;52.710;6.398;2023-02-26T03:47:34;0.30;99.90
52125;DHT22;38119;52.710;6.398;2023-02-26T03:50:11;0.30;99.90
52125;DHT22;38119;52.710;6.398;2023-02-26T03:52:40;0.30;99.90
52125;DHT22;38119;52.710;6.398;2023-02-26T03:55:17;0.30;99.90
52125;DHT22;38119;52.710;6.398;2023-02-26T03:57:44;0.30;99.90
52125;DHT22;38119;52.710;6.398;2023-02-26T04:00:10;0.20;99.90
52125;DHT22;38119;52.710;6.398;2023-02-26T04:02:44;0.20;99.90
52125;DHT22;38119;52.710;6.398;2023-02-26T04:05:17;0.20;99.90
52125;DHT22;38119;52.710;6.398;2023-02-26T04:07:45;0.20;99.90
52125;DHT22;38119;52.710;6.398;2023-02-26T04:10:14;0.20;99.90
52125;DHT22;38119;52.710;6.398;2023-02-26T04:12:41;0.20;99.90
52125;DHT22;38119;52.710;6.398;2023-02-26T04:15:07;0.20;99.90
52125;DHT22;38119;52.710;6.398;2023-02-26T04:17:33;0.20;99.90
52125;DHT22;38119;52.710;6.398;2023-02-26T04:19:59;0.20;99.90
52125;DHT22;38119;52.710;6.398;2023-02-26T04:22:25;0.20;99.90
52125;DHT22;38119;52.710;6.398;2023-02-26T04:24:50;0.20;99.90
52125;DHT22;38119;52.710;6.398;2023-02-26T04:27:16;0.10;99.90
52125;DHT22;38119;52.710;6.398;2023-02-26T04:29:41;0.20;99.90
52125;DHT22;38119;52.710;6.398;2023-02-26T04:32:07;0.20;99.90
52125;DHT22;38119;52.710;6.398;2023-02-26T04:34:33;0.20;99.90
52125;DHT22;38119;52.710;6.398;2023-02-26T04:36:58;0.20;99.90
52125;DHT22;38119;52.710;6.398;2023-02-26T04:39:24;0.20;99.90
52125;DHT22;38119;52.710;6.398;2023-02-26T04:41:49;0.20;99.90
52125;DHT22;38119;52.710;6.398;2023-02-26T04:44:15;0.10;99.90
52125;DHT22;38119;52.710;6.398;2023-02-26T04:46:41;0.20;99.90
52125;DHT22;38119;52.710;6.398;2023-02-26T04:49:06;0.10;99.90
52125;DHT22;38119;52.710;6.398;2023-02-26T04:51:32;0.10;99.90
52125;DHT22;38119;52.710;6.398;2023-02-26T04:53:58;0.10;99.90
52125;DHT22;38119;52.710;6.398;2023-02-26T04:56:23;0.10;99.90
52125;DHT22;38119;52.710;6.398;2023-02-26T04:58:49;0.00;99.90
52125;DHT22;38119;52.710;6.398;2023-02-26T05:01:14;0.10;99.90
52125;DHT22;38119;52.710;6.398;2023-02-26T05:03:40;0.10;99.90
52125;DHT22;38119;52.710;6.398;2023-02-26T05:06:06;0.00;99.90
52125;DHT22;38119;52.710;6.398;2023-02-26T05:08:31;0.40;99.90
52125;DHT22;38119;52.710;6.398;2023-02-26T05:10:57;0.00;99.90
52125;DHT22;38119;52.710;6.398;2023-02-26T05:13:23;0.00;99.90
52125;DHT22;38119;52.710;6.398;2023-02-26T05:15:49;0.40;99.90
52125;DHT22;38119;52.710;6.398;2023-02-26T05:18:14;0.00;99.90
52125;DHT22;38119;52.710;6.398;2023-02-26T05:20:40;-0.10;99.90
52125;DHT22;38119;52.710;6.398;2023-02-26T05:23:05;-0.10;99.90
52125;DHT22;38119;52.710;6.398;2023-02-26T05:25:31;-0.10;99.90
52125;DHT22;38119;52.710;6.398;2023-02-26T05:27:57;-0.20;99.90
52125;DHT22;38119;52.710;6.398;2023-02-26T05:30:22;-0.20;99.90
52125;DHT22;38119;52.710;6.398;2023-02-26T05:32:48;-0.20;99.90
52125;DHT22;38119;52.710;6.398;2023-02-26T05:35:14;-0.30;99.90
52125;DHT22;38119;52.710;6.398;2023-02-26T05:37:40;-0.30;99.90
52125;DHT22;38119;52.710;6.398;2023-02-26T05:40:07;-0.30;99.90
52125;DHT22;38119;52.710;6.398;2023-02-26T05:42:35;-0.30;99.90
52125;DHT22;38119;52.710;6.398;2023-02-26T05:45:01;-0.30;99.90
52125;DHT22;38119;52.710;6.398;2023-02-26T05:47:26;-0.40;99.90
52125;DHT22;38119;52.710;6.398;2023-02-26T05:49:52;-0.40;99.90
52125;DHT22;38119;52.710;6.398;2023-02-26T05:52:18;-0.40;99.90
52125;DHT22;38119;52.710;6.398;2023-02-26T05:54:43;-0.40;99.90
52125;DHT22;38119;52.710;6.398;2023-02-26T05:57:09;-0.40;99.90
52125;DHT22;38119;52.710;6.398;2023-02-26T05:59:34;-0.40;99.90
52125;DHT22;38119;52.710;6.398;2023-02-26T06:02:00;-0.50;99.90
52125;DHT22;38119;52.710;6.398;2023-02-26T06:04:26;-0.40;99.90
52125;DHT22;38119;52.710;6.398;2023-02-26T06:06:51;0.90;99.90
52125;DHT22;38119;52.710;6.398;2023-02-26T06:09:17;-0.40;99.90
52125;DHT22;38119;52.710;6.398;2023-02-26T06:11:42;-0.40;99.90
52125;DHT22;38119;52.710;6.398;2023-02-26T06:14:08;-0.50;99.90
52125;DHT22;38119;52.710;6.398;2023-02-26T06:16:33;1.10;99.90
52125;DHT22;38119;52.710;6.398;2023-02-26T06:19:00;-0.40;99.90
52125;DHT22;38119;52.710;6.398;2023-02-26T06:21:27;-0.40;99.90
52125;DHT22;38119;52.710;6.398;2023-02-26T06:23:52;-0.40;99.90
52125;DHT22;38119;52.710;6.398;2023-02-26T06:26:18;-0.40;99.90
52125;DHT22;38119;52.710;6.398;2023-02-26T06:28:44;-0.40;99.90
52125;DHT22;38119;52.710;6.398;2023-02-26T06:31:09;-0.40;99.90
52125;DHT22;38119;52.710;6.398;2023-02-26T06:33:35;-0.40;99.90
52125;DHT22;38119;52.710;6.398;2023-02-26T06:36:00;-0.40;99.90
52125;DHT22;38119;52.710;6.398;2023-02-26T06:38:27;-0.40;99.90
52125;DHT22;38119;52.710;6.398;2023-02-26T06:40:52;-0.40;99.90
52125;DHT22;38119;52.710;6.398;2023-02-26T06:43:18;-0.40;99.90
52125;DHT22;38119;52.710;6.398;2023-02-26T06:45:44;0.90;99.90
52125;DHT22;38119;52.710;6.398;2023-02-26T06:48:10;0.20;99.90
52125;DHT22;38119;52.710;6.398;2023-02-26T06:50:36;-0.40;99.90
52125;DHT22;38119;52.710;6.398;2023-02-26T06:53:02;-0.40;99.90
52125;DHT22;38119;52.710;6.398;2023-02-26T06:55:27;-0.30;99.90
52125;DHT22;38119;52.710;6.398;2023-02-26T06:57:53;-0.30;99.90
52125;DHT22;38119;52.710;6.398;2023-02-26T07:00:19;0.20;99.90
52125;DHT22;38119;52.710;6.398;2023-02-26T07:02:45;-0.30;99.90
52125;DHT22;38119;52.710;6.398;2023-02-26T07:05:11;-0.30;99.90
52125;DHT22;38119;52.710;6.398;2023-02-26T07:07:36;-0.30;99.90
52125;DHT22;38119;52.710;6.398;2023-02-26T07:10:02;-0.30;99.90
52125;DHT22;38119;52.710;6.398;2023-02-26T07:12:28;-0.20;99.90
52125;DHT22;38119;52.710;6.398;2023-02-26T07:14:54;-0.20;99.90
52125;DHT22;38119;52.710;6.398;2023-02-26T07:17:19;0.00;99.90
52125;DHT22;38119;52.710;6.398;2023-02-26T07:19:51;-0.20;99.90
52125;DHT22;38119;52.710;6.398;2023-02-26T07:22:18;-0.20;99.90
52125;DHT22;38119;52.710;6.398;2023-02-26T07:24:44;0.20;99.90
52125;DHT22;38119;52.710;6.398;2023-02-26T07:27:10;-0.20;99.90
52125;DHT22;38119;52.710;6.398;2023-02-26T07:29:37;-0.10;99.90
52125;DHT22;38119;52.710;6.398;2023-02-26T07:32:03;-0.10;99.90
52125;DHT22;38119;52.710;6.398;2023-02-26T07:34:29;-0.10;99.90
52125;DHT22;38119;52.710;6.398;2023-02-26T07:36:54;-0.10;99.90
52125;DHT22;38119;52.710;6.398;2023-02-26T07:39:20;-0.10;99.90
52125;DHT22;38119;52.710;6.398;2023-02-26T07:41:46;0.00;99.90
52125;DHT22;38119;52.710;6.398;2023-02-26T07:44:11;0.00;99.90
52125;DHT22;38119;52.710;6.398;2023-02-26T07:46:37;0.90;99.90
52125;DHT22;38119;52.710;6.398;2023-02-26T07:49:02;0.00;99.90
52125;DHT22;38119;52.710;6.398;2023-02-26T07:51:28;0.10;99.90
52125;DHT22;38119;52.710;6.398;2023-02-26T07:53:54;0.10;99.90
52125;DHT22;38119;52.710;6.398;2023-02-26T07:56:19;0.10;99.90
52125;DHT22;38119;52.710;6.398;2023-02-26T07:58:45;0.20;99.90
52125;DHT22;38119;52.710;6.398;2023-02-26T08:01:10;0.30;99.90
52125;DHT22;38119;52.710;6.398;2023-02-26T08:03:36;0.70;99.90
52125;DHT22;38119;52.710;6.398;2023-02-26T08:06:02;0.30;99.90
52125;DHT22;38119;52.710;6.398;2023-02-26T08:08:28;0.40;99.90
52125;DHT22;38119;52.710;6.398;2023-02-26T08:10:53;0.40;99.90
52125;DHT22;38119;52.710;6.398;2023-02-26T08:13:19;0.40;99.90
52125;DHT22;38119;52.710;6.398;2023-02-26T08:15:46;0.40;99.90
52125;DHT22;38119;52.710;6.398;2023-02-26T08:18:12;0.50;99.90
52125;DHT22;38119;52.710;6.398;2023-02-26T08:20:38;0.50;99.90
52125;DHT22;38119;52.710;6.398;2023-02-26T08:23:03;1.10;99.90
52125;DHT22;38119;52.710;6.398;2023-02-26T08:25:29;0.60;99.90
52125;DHT22;38119;52.710;6.398;2023-02-26T08:27:54;0.60;99.90
52125;DHT22;38119;52.710;6.398;2023-02-26T08:30:23;0.70;99.90
52125;DHT22;38119;52.710;6.398;2023-02-26T08:32:48;0.70;99.90
52125;DHT22;38119;52.710;6.398;2023-02-26T08:35:14;0.70;99.90
52125;DHT22;38119;52.710;6.398;2023-02-26T08:37:40;0.70;99.90
52125;DHT22;38119;52.710;6.398;2023-02-26T08:40:07;0.80;99.90
52125;DHT22;38119;52.710;6.398;2023-02-26T08:42:34;0.80;99.90
52125;DHT22;38119;52.710;6.398;2023-02-26T08:44:59;0.90;99.90
52125;DHT22;38119;52.710;6.398;2023-02-26T08:47:25;0.90;99.90
52125;DHT22;38119;52.710;6.398;2023-02-26T08:49:51;1.20;99.90
52125;DHT22;38119;52.710;6.398;2023-02-26T08:52:16;1.00;99.90
52125;DHT22;38119;52.710;6.398;2023-02-26T08:54:42;1.10;99.90
52125;DHT22;38119;52.710;6.398;2023-02-26T08:57:08;1.10;99.90
52125;DHT22;38119;52.710;6.398;2023-02-26T08:59:33;1.20;99.90
52125;DHT22;38119;52.710;6.398;2023-02-26T09:01:59;1.20;99.90
52125;DHT22;38119;52.710;6.398;2023-02-26T09:04:24;1.20;99.90
52125;DHT22;38119;52.710;6.398;2023-02-26T09:06:51;1.30;99.90
52125;DHT22;38119;52.710;6.398;2023-02-26T09:09:17;1.30;99.90
52125;DHT22;38119;52.710;6.398;2023-02-26T09:11:44;1.40;99.90
52125;DHT22;38119;52.710;6.398;2023-02-26T09:14:10;1.40;99.90
52125;DHT22;38119;52.710;6.398;2023-02-26T09:16:35;1.40;99.90
52125;DHT22;38119;52.710;6.398;2023-02-26T09:19:03;1.50;99.90
52125;DHT22;38119;52.710;6.398;2023-02-26T09:21:29;1.50;99.90
52125;DHT22;38119;52.710;6.398;2023-02-26T09:23:55;1.50;99.90
52125;DHT22;38119;52.710;6.398;2023-02-26T09:26:20;1.50;99.90
52125;DHT22;38119;52.710;6.398;2023-02-26T09:28:46;1.60;99.90
52125;DHT22;38119;52.710;6.398;2023-02-26T09:31:12;1.60;99.90
52125;DHT22;38119;52.710;6.398;2023-02-26T09:33:37;1.70;99.90
52125;DHT22;38119;52.710;6.398;2023-02-26T09:36:03;1.70;99.90
52125;DHT22;38119;52.710;6.398;2023-02-26T09:38:32;1.70;99.90
52125;DHT22;38119;52.710;6.398;2023-02-26T09:41:09;2.70;99.90
52125;DHT22;38119;52.710;6.398;2023-02-26T09:43:48;1.80;99.90
52125;DHT22;38119;52.710;6.398;2023-02-26T09:49:49;1.90;99.90
52125;DHT22;38119;52.710;6.398;2023-02-26T09:55:05;2.00;99.90
52125;DHT22;38119;52.710;6.398;2023-02-26T09:57:41;2.00;99.90
52125;DHT22;38119;52.710;6.398;2023-02-26T10:00:33;2.10;99.90
52125;DHT22;38119;52.710;6.398;2023-02-26T10:05:36;2.20;99.90
52125;DHT22;38119;52.710;6.398;2023-02-26T10:08:16;2.30;99.90
52125;DHT22;38119;52.710;6.398;2023-02-26T10:13:39;2.30;99.90
52125;DHT22;38119;52.710;6.398;2023-02-26T10:16:12;2.40;99.90
52125;DHT22;38119;52.710;6.398;2023-02-26T10:18:58;2.50;99.90
52125;DHT22;38119;52.710;6.398;2023-02-26T10:24:25;2.70;99.90
52125;DHT22;38119;52.710;6.398;2023-02-26T10:27:01;2.70;99.90
52125;DHT22;38119;52.710;6.398;2023-02-26T10:29:50;2.80;99.90
52125;DHT22;38119;52.710;6.398;2023-02-26T10:32:25;2.90;99.90
52125;DHT22;38119;52.710;6.398;2023-02-26T10:35:08;2.90;99.90
52125;DHT22;38119;52.710;6.398;2023-02-26T10:40:15;3.10;99.90
52125;DHT22;38119;52.710;6.398;2023-02-26T10:46:03;3.30;99.90
52125;DHT22;38119;52.710;6.398;2023-02-26T10:51:35;3.60;99.90
52125;DHT22;38119;52.710;6.398;2023-02-26T10:56:41;4.10;99.90
52125;DHT22;38119;52.710;6.398;2023-02-26T10:59:07;4.20;99.90
52125;DHT22;38119;52.710;6.398;2023-02-26T11:01:33;4.40;99.90
52125;DHT22;38119;52.710;6.398;2023-02-26T11:04:08;4.60;99.90
52125;DHT22;38119;52.710;6.398;2023-02-26T11:06:45;4.90;99.90
52125;DHT22;38119;52.710;6.398;2023-02-26T11:09:19;5.10;99.90
52125;DHT22;38119;52.710;6.398;2023-02-26T11:14:13;5.40;99.90
52125;DHT22;38119;52.710;6.398;2023-02-26T11:16:46;5.60;99.90
52125;DHT22;38119;52.710;6.398;2023-02-26T11:19:14;5.70;99.90
52125;DHT22;38119;52.710;6.398;2023-02-26T11:21:43;5.80;99.90
52125;DHT22;38119;52.710;6.398;2023-02-26T11:24:29;5.90;99.90
52125;DHT22;38119;52.710;6.398;2023-02-26T11:26:57;6.10;99.90
52125;DHT22;38119;52.710;6.398;2023-02-26T11:29:24;6.20;99.90
52125;DHT22;38119;52.710;6.398;2023-02-26T11:31:54;6.20;99.90
52125;DHT22;38119;52.710;6.398;2023-02-26T11:34:24;6.20;99.90
52125;DHT22;38119;52.710;6.398;2023-02-26T11:36:52;6.30;99.90
52125;DHT22;38119;52.710;6.398;2023-02-26T11:39:23;6.30;99.90
52125;DHT22;38119;52.710;6.398;2023-02-26T11:41:52;6.50;99.90
52125;DHT22;38119;52.710;6.398;2023-02-26T11:46:56;6.70;99.90
52125;DHT22;38119;52.710;6.398;2023-02-26T11:49:25;6.80;99.90
52125;DHT22;38119;52.710;6.398;2023-02-26T11:54:55;7.00;99.90
52125;DHT22;38119;52.710;6.398;2023-02-26T11:57:29;7.10;99.90
52125;DHT22;38119;52.710;6.398;2023-02-26T11:59:57;7.20;99.90
52125;DHT22;38119;52.710;6.398;2023-02-26T12:02:25;7.20;99.90
52125;DHT22;38119;52.710;6.398;2023-02-26T12:04:57;7.20;99.90
52125;DHT22;38119;52.710;6.398;2023-02-26T12:07:25;7.30;99.90
52125;DHT22;38119;52.710;6.398;2023-02-26T12:09:51;7.40;99.90
52125;DHT22;38119;52.710;6.398;2023-02-26T12:18:26;7.30;99.90
52125;DHT22;38119;52.710;6.398;2023-02-26T12:20:59;7.70;99.90
52125;DHT22;38119;52.710;6.398;2023-02-26T12:31:20;7.40;99.90
52125;DHT22;38119;52.710;6.398;2023-02-26T12:34:20;7.50;99.90
52125;DHT22;38119;52.710;6.398;2023-02-26T12:45:38;7.60;99.90
52125;DHT22;38119;52.710;6.398;2023-02-26T12:48:39;7.60;99.90
52125;DHT22;38119;52.710;6.398;2023-02-26T12:54:28;7.80;99.90
52125;DHT22;38119;52.710;6.398;2023-02-26T13:02:49;7.70;99.90
52125;DHT22;38119;52.710;6.398;2023-02-26T13:08:05;7.50;99.70
52125;DHT22;38119;52.710;6.398;2023-02-26T13:16:20;7.30;99.60
52125;DHT22;38119;52.710;6.398;2023-02-26T13:18:54;7.30;99.90
52125;DHT22;38119;52.710;6.398;2023-02-26T13:21:31;7.30;99.90
52125;DHT22;38119;52.710;6.398;2023-02-26T13:24:13;7.40;99.90
52125;DHT22;38119;52.710;6.398;2023-02-26T13:26:41;7.50;99.90
52125;DHT22;38119;52.710;6.398;2023-02-26T13:29:21;7.70;99.90
52125;DHT22;38119;52.710;6.398;2023-02-26T13:31:55;7.90;99.90
52125;DHT22;38119;52.710;6.398;2023-02-26T13:37:25;7.90;99.30
52125;DHT22;38119;52.710;6.398;2023-02-26T13:48:40;7.50;99.50
52125;DHT22;38119;52.710;6.398;2023-02-26T13:54:28;7.50;99.30
52125;DHT22;38119;52.710;6.398;2023-02-26T14:02:45;7.70;99.50
52125;DHT22;38119;52.710;6.398;2023-02-26T14:05:34;7.80;99.50
52125;DHT22;38119;52.710;6.398;2023-02-26T14:08:27;7.80;99.20
52125;DHT22;38119;52.710;6.398;2023-02-26T14:11:23;7.80;99.20
52125;DHT22;38119;52.710;6.398;2023-02-26T14:14:18;7.80;99.30
52125;DHT22;38119;52.710;6.398;2023-02-26T14:16:49;7.70;98.90
52125;DHT22;38119;52.710;6.398;2023-02-26T14:21:49;7.40;98.00
52125;DHT22;38119;52.710;6.398;2023-02-26T14:24:22;7.40;99.30
52125;DHT22;38119;52.710;6.398;2023-02-26T14:27:03;7.40;99.40
52125;DHT22;38119;52.710;6.398;2023-02-26T14:32:11;7.50;99.50
52125;DHT22;38119;52.710;6.398;2023-02-26T14:34:52;7.60;99.60
52125;DHT22;38119;52.710;6.398;2023-02-26T14:37:23;7.60;99.30
52125;DHT22;38119;52.710;6.398;2023-02-26T14:40:00;8.10;99.30
52125;DHT22;38119;52.710;6.398;2023-02-26T14:42:56;7.50;99.20
52125;DHT22;38119;52.710;6.398;2023-02-26T14:45:36;7.40;99.30
52125;DHT22;38119;52.710;6.398;2023-02-26T14:48:11;7.40;99.50
52125;DHT22;38119;52.710;6.398;2023-02-26T14:56:28;7.40;99.40
52125;DHT22;38119;52.710;6.398;2023-02-26T15:02:05;7.20;99.80
52125;DHT22;38119;52.710;6.398;2023-02-26T15:04:47;7.30;99.90
52125;DHT22;38119;52.710;6.398;2023-02-26T15:10:39;7.20;99.90
52125;DHT22;38119;52.710;6.398;2023-02-26T15:18:52;7.20;99.90
52125;DHT22;38119;52.710;6.398;2023-02-26T15:24:12;7.20;99.90
52125;DHT22;38119;52.710;6.398;2023-02-26T15:26:50;7.10;99.90
52125;DHT22;38119;52.710;6.398;2023-02-26T15:29:17;7.00;99.90
52125;DHT22;38119;52.710;6.398;2023-02-26T15:31:58;6.90;99.90
52125;DHT22;38119;52.710;6.398;2023-02-26T15:34:25;6.70;99.90
52125;DHT22;38119;52.710;6.398;2023-02-26T15:36:52;6.60;99.90
52125;DHT22;38119;52.710;6.398;2023-02-26T15:39:21;6.60;99.90
52125;DHT22;38119;52.710;6.398;2023-02-26T15:41:49;6.50;99.90
52125;DHT22;38119;52.710;6.398;2023-02-26T15:44:28;6.50;99.90
52125;DHT22;38119;52.710;6.398;2023-02-26T15:46:57;6.40;99.90
52125;DHT22;38119;52.710;6.398;2023-02-26T15:49:33;6.80;99.90
52125;DHT22;38119;52.710;6.398;2023-02-26T15:52:02;6.30;99.90
52125;DHT22;38119;52.710;6.398;2023-02-26T15:54:46;6.30;99.90
52125;DHT22;38119;52.710;6.398;2023-02-26T15:57:14;6.30;99.90
52125;DHT22;38119;52.710;6.398;2023-02-26T15:59:46;6.30;99.90
52125;DHT22;38119;52.710;6.398;2023-02-26T16:02:20;6.30;99.90
52125;DHT22;38119;52.710;6.398;2023-02-26T16:04:46;6.20;99.90
52125;DHT22;38119;52.710;6.398;2023-02-26T16:07:12;6.20;99.90
52125;DHT22;38119;52.710;6.398;2023-02-26T16:09:46;6.10;99.90
52125;DHT22;38119;52.710;6.398;2023-02-26T16:12:28;6.00;99.90
52125;DHT22;38119;52.710;6.398;2023-02-26T16:14:59;6.00;99.90
52125;DHT22;38119;52.710;6.398;2023-02-26T16:17:28;5.80;99.90
52125;DHT22;38119;52.710;6.398;2023-02-26T16:20:03;5.80;99.90
52125;DHT22;38119;52.710;6.398;2023-02-26T16:22:34;5.70;99.90
52125;DHT22;38119;52.710;6.398;2023-02-26T16:27:28;5.60;99.90
52125;DHT22;38119;52.710;6.398;2023-02-26T16:29:58;5.50;99.90
52125;DHT22;38119;52.710;6.398;2023-02-26T16:32:27;5.50;99.90
52125;DHT22;38119;52.710;6.398;2023-02-26T16:34:56;5.40;99.90
52125;DHT22;38119;52.710;6.398;2023-02-26T16:45:43;5.20;99.90
52125;DHT22;38119;52.710;6.398;2023-02-26T16:48:27;5.10;99.90
52125;DHT22;38119;52.710;6.398;2023-02-26T16:51:05;5.10;99.90
52125;DHT22;38119;52.710;6.398;2023-02-26T16:53:36;5.10;99.90
52125;DHT22;38119;52.710;6.398;2023-02-26T16:56:14;5.00;99.90
52125;DHT22;38119;52.710;6.398;2023-02-26T17:01:49;4.90;99.90
52125;DHT22;38119;52.710;6.398;2023-02-26T17:04:16;4.90;99.90
52125;DHT22;38119;52.710;6.398;2023-02-26T17:06:43;4.80;99.90
52125;DHT22;38119;52.710;6.398;2023-02-26T17:09:38;4.80;99.90
52125;DHT22;38119;52.710;6.398;2023-02-26T17:12:28;4.70;99.90
52125;DHT22;38119;52.710;6.398;2023-02-26T17:14:56;4.70;99.90
52125;DHT22;38119;52.710;6.398;2023-02-26T17:17:23;4.70;99.90
52125;DHT22;38119;52.710;6.398;2023-02-26T17:19:49;4.60;99.90
52125;DHT22;38119;52.710;6.398;2023-02-26T17:22:21;4.60;99.90
52125;DHT22;38119;52.710;6.398;2023-02-26T17:24:48;4.50;99.90
52125;DHT22;38119;52.710;6.398;2023-02-26T17:27:31;4.60;99.90
52125;DHT22;38119;52.710;6.398;2023-02-26T17:29:58;4.50;99.90
52125;DHT22;38119;52.710;6.398;2023-02-26T17:32:26;4.50;99.90
52125;DHT22;38119;52.710;6.398;2023-02-26T17:34:52;4.50;99.90
52125;DHT22;38119;52.710;6.398;2023-02-26T17:37:19;4.40;99.90
52125;DHT22;38119;52.710;6.398;2023-02-26T17:39:45;4.40;99.90
52125;DHT22;38119;52.710;6.398;2023-02-26T17:42:13;4.40;99.90
52125;DHT22;38119;52.710;6.398;2023-02-26T17:44:40;4.40;99.90
52125;DHT22;38119;52.710;6.398;2023-02-26T17:47:08;4.40;99.90
52125;DHT22;38119;52.710;6.398;2023-02-26T17:49:34;4.40;99.90
52125;DHT22;38119;52.710;6.398;2023-02-26T17:51:59;4.30;99.90
52125;DHT22;38119;52.710;6.398;2023-02-26T17:54:25;4.30;99.90
52125;DHT22;38119;52.710;6.398;2023-02-26T17:56:50;4.30;99.90
52125;DHT22;38119;52.710;6.398;2023-02-26T17:59:16;4.30;99.90
52125;DHT22;38119;52.710;6.398;2023-02-26T18:01:42;4.20;99.90
52125;DHT22;38119;52.710;6.398;2023-02-26T18:04:07;4.10;99.90
52125;DHT22;38119;52.710;6.398;2023-02-26T18:06:35;4.10;99.90
52125;DHT22;38119;52.710;6.398;2023-02-26T18:09:02;4.10;99.90
52125;DHT22;38119;52.710;6.398;2023-02-26T18:11:31;4.00;99.90
52125;DHT22;38119;52.710;6.398;2023-02-26T18:13:57;4.00;99.90
52125;DHT22;38119;52.710;6.398;2023-02-26T18:16:34;4.00;99.90
52125;DHT22;38119;52.710;6.398;2023-02-26T18:19:03;3.90;99.90
52125;DHT22;38119;52.710;6.398;2023-02-26T18:21:30;3.90;99.90
52125;DHT22;38119;52.710;6.398;2023-02-26T18:23:56;3.90;99.90
52125;DHT22;38119;52.710;6.398;2023-02-26T18:26:23;3.80;99.90
52125;DHT22;38119;52.710;6.398;2023-02-26T18:28:51;3.90;99.90
52125;DHT22;38119;52.710;6.398;2023-02-26T18:31:17;3.80;99.90
52125;DHT22;38119;52.710;6.398;2023-02-26T18:33:43;3.80;99.90
52125;DHT22;38119;52.710;6.398;2023-02-26T18:36:27;3.80;99.90
52125;DHT22;38119;52.710;6.398;2023-02-26T18:39:00;3.80;99.90
52125;DHT22;38119;52.710;6.398;2023-02-26T18:41:27;3.80;99.90
52125;DHT22;38119;52.710;6.398;2023-02-26T18:43:53;3.90;99.90
52125;DHT22;38119;52.710;6.398;2023-02-26T18:46:19;3.90;99.90
52125;DHT22;38119;52.710;6.398;2023-02-26T18:48:44;3.90;99.90
52125;DHT22;38119;52.710;6.398;2023-02-26T18:51:11;4.30;99.90
52125;DHT22;38119;52.710;6.398;2023-02-26T18:53:37;3.90;99.90
52125;DHT22;38119;52.710;6.398;2023-02-26T18:56:03;3.90;99.90
52125;DHT22;38119;52.710;6.398;2023-02-26T18:58:29;3.70;99.90